createdAt,value
2023-02-11T00:01:23.815Z,0.91
2023-02-11T00:05:26.959Z,0.88
2023-02-11T00:09:31.907Z,0.85
2023-02-11T00:13:36.807Z,0.79
2023-02-11T00:17:40.403Z,0.74
2023-02-11T00:21:43.843Z,0.67
2023-02-11T00:25:49.503Z,0.59
2023-02-11T00:29:54.273Z,0.49
2023-02-11T00:33:57.244Z,0.39
2023-02-11T00:38:00.744Z,0.31
2023-02-11T00:42:03.669Z,0.24
2023-02-11T00:46:08.769Z,0.20
2023-02-11T00:50:11.805Z,0.22
2023-02-11T00:54:15.482Z,0.26
2023-02-11T00:58:18.856Z,0.32
2023-02-11T01:02:23.746Z,0.37
2023-02-11T01:06:26.945Z,0.43
2023-02-11T01:10:30.265Z,0.49
2023-02-11T01:14:33.151Z,0.59
2023-02-11T01:18:38.480Z,0.69
2023-02-11T01:22:42.260Z,0.79
2023-02-11T01:26:45.729Z,0.87
2023-02-11T01:30:49.150Z,0.96
2023-02-11T01:34:53.955Z,1.05
2023-02-11T01:38:57.208Z,1.11
2023-02-11T01:43:00.593Z,1.17
2023-02-11T01:47:06.882Z,1.21
2023-02-11T01:51:16.599Z,1.28
2023-02-11T01:55:37.048Z,1.37
2023-02-11T01:59:45.591Z,1.45
2023-02-11T02:03:52.107Z,1.51
2023-02-11T02:08:04.778Z,1.56
2023-02-11T02:12:07.537Z,1.61
2023-02-11T02:16:13.919Z,1.67
2023-02-11T02:20:40.537Z,1.68
2023-02-11T02:25:01.325Z,1.71
2023-02-11T02:29:32.710Z,1.73
2023-02-11T02:33:47.301Z,1.72
2023-02-11T02:37:55.502Z,1.71
2023-02-11T02:41:59.455Z,1.61
2023-02-11T02:46:13.360Z,1.58
2023-02-11T02:50:25.480Z,1.49
2023-02-11T02:54:59.108Z,1.43
2023-02-11T02:59:24.905Z,1.39
2023-02-11T03:03:37.695Z,1.32
2023-02-11T03:07:47.740Z,1.38
2023-02-11T03:11:51.226Z,1.34
2023-02-11T03:15:58.641Z,1.32
2023-02-11T03:20:04.671Z,1.33
2023-02-11T03:24:12.058Z,1.34
2023-02-11T03:28:23.923Z,1.34
2023-02-11T03:32:30.485Z,1.37
2023-02-11T03:36:41.156Z,1.41
2023-02-11T03:40:47.391Z,1.43
2023-02-11T03:44:57.873Z,1.45
2023-02-11T03:49:05.918Z,1.49
2023-02-11T03:53:09.694Z,1.48
2023-02-11T03:57:14.529Z,1.49
2023-02-11T04:01:18.140Z,1.45
2023-02-11T04:05:21.599Z,1.44
2023-02-11T04:09:24.793Z,1.44
2023-02-11T04:13:29.573Z,1.43
2023-02-11T04:17:32.641Z,1.39
2023-02-11T04:21:36.080Z,1.35
2023-02-11T04:25:39.069Z,1.30
2023-02-11T04:29:44.238Z,1.27
2023-02-11T04:33:47.177Z,1.19
2023-02-11T04:37:50.600Z,1.11
2023-02-11T04:41:53.681Z,1.04
2023-02-11T04:46:00.257Z,1.01
2023-02-11T04:50:03.298Z,0.97
2023-02-11T04:54:06.690Z,0.91
2023-02-11T04:58:09.627Z,0.96
2023-02-11T05:02:15.735Z,1.00
2023-02-11T05:06:19.859Z,1.03
2023-02-11T05:10:23.156Z,1.05
2023-02-11T05:14:26.432Z,1.05
2023-02-11T05:18:30.805Z,1.03
2023-02-11T05:22:34.288Z,1.04
2023-02-11T05:26:37.706Z,1.07
2023-02-11T05:30:41.190Z,1.11
2023-02-11T05:34:46.134Z,1.22
2023-02-11T05:38:51.140Z,1.33
2023-02-11T05:42:54.359Z,1.40
2023-02-11T05:46:57.682Z,1.41
2023-02-11T05:51:02.317Z,1.41
2023-02-11T05:55:05.755Z,1.42
2023-02-11T05:59:08.950Z,1.43
2023-02-11T06:03:12.123Z,1.38
2023-02-11T06:07:17.530Z,1.43
2023-02-11T06:11:20.803Z,1.40
2023-02-11T06:15:23.830Z,1.35
2023-02-11T06:19:27.132Z,1.32
2023-02-11T06:23:32.359Z,1.30
2023-02-11T06:27:36.116Z,1.25
2023-02-11T06:31:39.912Z,1.26
2023-02-11T06:35:43.204Z,1.27
2023-02-11T06:39:48.310Z,1.40
2023-02-11T06:43:51.478Z,1.46
2023-02-11T06:47:55.072Z,1.55
2023-02-11T06:51:58.469Z,1.65
2023-02-11T06:56:07.314Z,1.75
2023-02-11T07:00:12.083Z,1.83
2023-02-11T07:04:16.061Z,1.90
2023-02-11T07:08:19.433Z,2.07
2023-02-11T07:12:23.720Z,2.22
2023-02-11T07:16:27.037Z,2.33
2023-02-11T07:20:30.225Z,2.44
2023-02-11T07:24:34.034Z,2.57
2023-02-11T07:28:41.203Z,2.68
2023-02-11T07:32:44.145Z,2.79
2023-02-11T07:36:49.452Z,2.88
2023-02-11T07:40:52.290Z,2.92
2023-02-11T07:44:56.962Z,2.99
2023-02-11T07:49:00.430Z,3.08
2023-02-11T07:53:04.032Z,3.16
2023-02-11T07:57:07.119Z,3.26
2023-02-11T08:01:13.897Z,3.34
2023-02-11T08:05:16.854Z,3.43
2023-02-11T08:09:20.656Z,3.53
2023-02-11T08:13:23.567Z,3.61
2023-02-11T08:17:28.473Z,3.67
2023-02-11T08:21:33.156Z,3.71
2023-02-11T08:25:36.653Z,3.75
2023-02-11T08:30:25.060Z,3.88
2023-02-11T08:34:30.773Z,4.11
2023-02-11T08:38:33.933Z,4.36
2023-02-11T08:42:37.416Z,4.58
2023-02-11T08:46:40.702Z,4.75
2023-02-11T08:50:45.390Z,4.89
2023-02-11T08:54:48.671Z,4.97
2023-02-11T08:58:52.451Z,5.03
2023-02-11T09:02:55.829Z,5.04
2023-02-11T09:07:00.174Z,5.03
2023-02-11T09:11:04.091Z,4.97
2023-02-11T09:15:07.769Z,4.92
2023-02-11T09:19:11.720Z,4.94
2023-02-11T09:23:18.518Z,5.06
2023-02-11T09:27:21.548Z,5.21
2023-02-11T09:31:27.240Z,5.38
2023-02-11T09:35:30.653Z,5.56
2023-02-11T09:39:35.737Z,5.76
2023-02-11T09:43:46.454Z,5.99
2023-02-11T09:47:54.726Z,6.28
2023-02-11T09:52:04.775Z,6.58
2023-02-11T09:56:15.750Z,6.84
2023-02-11T10:00:24.989Z,7.00
2023-02-11T10:04:44.712Z,7.14
2023-02-11T10:09:00.099Z,7.25
2023-02-11T10:13:24.585Z,7.34
2023-02-11T10:17:40.036Z,7.47
2023-02-11T10:21:54.851Z,7.61
2023-02-11T10:25:59.410Z,7.70
2023-02-11T10:30:12.823Z,7.77
2023-02-11T10:34:17.380Z,7.80
2023-02-11T10:38:22.158Z,7.86
2023-02-11T10:42:27.343Z,7.94
2023-02-11T10:46:34.552Z,8.00
2023-02-11T10:50:38.988Z,8.06
2023-02-11T10:54:42.383Z,8.14
2023-02-11T10:58:47.083Z,8.20
2023-02-11T11:02:57.969Z,8.30
2023-02-11T11:07:17.693Z,8.48
2023-02-11T11:11:23.136Z,8.67
2023-02-11T11:15:28.696Z,8.83
2023-02-11T11:19:33.840Z,8.90
2023-02-11T11:23:38.653Z,8.93
2023-02-11T11:27:41.913Z,8.91
2023-02-11T11:31:51.589Z,8.91
2023-02-11T11:36:01.624Z,8.88
2023-02-11T11:40:10.728Z,8.82
2023-02-11T11:44:25.897Z,8.76
2023-02-11T11:48:33.223Z,8.68
2023-02-11T11:52:45.550Z,8.60
2023-02-11T11:56:54.088Z,8.51
2023-02-11T12:01:07.404Z,8.42
2023-02-11T12:05:14.932Z,8.34
2023-02-11T12:09:28.549Z,8.30
2023-02-11T12:13:51.528Z,8.27
2023-02-11T12:18:03.307Z,8.32
2023-02-11T12:22:12.511Z,8.37
2023-02-11T12:26:20.884Z,8.38
2023-02-11T12:30:52.857Z,8.39
2023-02-11T12:35:11.058Z,8.43
2023-02-11T12:39:28.646Z,8.45
2023-02-11T12:43:38.671Z,8.47
2023-02-11T12:47:50.837Z,8.52
2023-02-11T12:52:09.990Z,8.58
2023-02-11T12:56:18.742Z,8.67
2023-02-11T13:00:26.406Z,8.79
2023-02-11T13:04:36.547Z,8.90
2023-02-11T13:08:45.086Z,8.94
2023-02-11T13:13:09.152Z,8.92
2023-02-11T13:17:22.349Z,8.84
2023-02-11T13:21:40.093Z,8.74
2023-02-11T13:25:47.973Z,8.65
2023-02-11T13:34:01.831Z,8.46
2023-02-11T13:38:07.206Z,8.37
2023-02-11T13:42:18.166Z,8.31
2023-02-11T13:46:21.133Z,8.21
2023-02-11T13:50:27.366Z,8.16
2023-02-11T13:54:34.901Z,8.10
2023-02-11T13:58:47.802Z,8.06
2023-02-11T14:03:19.431Z,8.07
2023-02-11T14:07:49.999Z,8.03
2023-02-11T14:11:55.670Z,7.96
2023-02-11T14:16:09.886Z,7.90
2023-02-11T14:20:43.538Z,7.91
2023-02-11T14:24:58.205Z,7.88
2023-02-11T14:29:14.476Z,7.87
2023-02-11T14:34:03.137Z,7.83
2023-02-11T14:38:16.012Z,7.76
2023-02-11T14:42:22.788Z,7.74
2023-02-11T14:46:30.303Z,7.71
2023-02-11T14:50:38.448Z,7.74
2023-02-11T14:54:45.611Z,7.73
2023-02-11T14:58:52.156Z,7.78
2023-02-11T15:02:56.386Z,7.83
2023-02-11T15:07:05.216Z,7.86
2023-02-11T15:11:13.144Z,7.86
2023-02-11T15:15:18.210Z,7.88
2023-02-11T15:19:27.018Z,7.87
2023-02-11T15:23:32.276Z,7.87
2023-02-11T15:27:43.426Z,7.89
2023-02-11T15:31:48.045Z,7.85
2023-02-11T15:35:52.171Z,7.81
2023-02-11T15:39:57.024Z,7.80
2023-02-11T15:44:00.433Z,7.77
2023-02-11T15:48:11.222Z,7.74
2023-02-11T15:52:16.048Z,7.71
2023-02-11T15:56:25.829Z,7.67
2023-02-11T16:00:38.748Z,7.64
2023-02-11T16:04:51.951Z,7.61
2023-02-11T16:09:04.369Z,7.58
2023-02-11T16:13:21.193Z,7.53
2023-02-11T16:17:28.940Z,7.51
2023-02-11T16:21:39.598Z,7.46
2023-02-11T16:25:43.822Z,7.36
2023-02-11T16:29:48.959Z,7.29
2023-02-11T16:33:52.200Z,7.25
2023-02-11T16:37:56.768Z,7.21
2023-02-11T16:42:00.432Z,7.16
2023-02-11T16:46:03.392Z,7.12
2023-02-11T16:50:10.838Z,7.01
2023-02-11T16:54:17.811Z,6.93
2023-02-11T16:58:21.170Z,6.85
2023-02-11T17:02:27.259Z,6.79
2023-02-11T17:06:30.483Z,6.73
2023-02-11T17:10:35.905Z,6.68
2023-02-11T17:14:39.114Z,6.65
2023-02-11T17:18:42.269Z,6.63
2023-02-11T17:22:45.423Z,6.56
2023-02-11T17:26:51.347Z,6.59
2023-02-11T17:30:54.592Z,6.49
2023-02-11T17:34:58.135Z,6.52
2023-02-11T17:39:02.079Z,6.48
2023-02-11T17:43:06.656Z,6.46
2023-02-11T17:47:10.002Z,6.44
2023-02-11T17:51:24.159Z,6.44
2023-02-11T17:55:27.408Z,6.43
2023-02-11T17:59:35.653Z,6.39
2023-02-11T18:03:39.248Z,6.37
2023-02-11T18:07:42.443Z,6.34
2023-02-11T18:11:45.567Z,6.33
2023-02-11T18:15:50.520Z,6.31
2023-02-11T18:19:57.136Z,6.30
2023-02-11T18:24:05.994Z,6.30
2023-02-11T18:28:10.146Z,6.29
2023-02-11T18:32:16.612Z,6.29
2023-02-11T18:36:20.272Z,6.27
2023-02-11T18:40:23.752Z,6.34
2023-02-11T18:44:27.199Z,6.26
2023-02-11T18:48:32.367Z,6.34
2023-02-11T18:52:36.916Z,6.33
2023-02-11T18:56:40.434Z,6.31
2023-02-11T19:00:47.164Z,6.30
2023-02-11T19:04:51.875Z,6.33
2023-02-11T19:08:58.274Z,6.36
2023-02-11T19:13:02.707Z,6.41
2023-02-11T19:17:08.368Z,6.44
2023-02-11T19:21:14.092Z,6.48
2023-02-11T19:25:17.442Z,6.47
2023-02-11T19:29:21.224Z,6.48
2023-02-11T19:33:24.414Z,6.48
2023-02-11T19:37:29.171Z,6.51
2023-02-11T19:41:33.559Z,6.54
2023-02-11T19:45:39.336Z,6.61
2023-02-11T19:49:42.668Z,6.65
2023-02-11T19:53:47.981Z,6.73
2023-02-11T19:57:51.366Z,6.78
2023-02-11T20:01:54.383Z,6.84
2023-02-11T20:05:58.037Z,6.86
2023-02-11T20:10:02.385Z,6.86
2023-02-11T20:14:07.056Z,6.82
2023-02-11T20:18:10.337Z,6.75
2023-02-11T20:22:13.360Z,6.67
2023-02-11T20:26:20.244Z,6.64
2023-02-11T20:30:23.816Z,6.57
2023-02-11T20:34:27.153Z,6.53
2023-02-11T20:38:30.502Z,6.48
2023-02-11T20:42:35.289Z,6.44
2023-02-11T20:46:41.935Z,6.39
2023-02-11T20:50:48.382Z,6.36
2023-02-11T20:54:51.532Z,6.34
2023-02-11T20:58:58.577Z,6.34
2023-02-11T21:03:01.514Z,6.37
2023-02-11T21:07:04.757Z,6.40
2023-02-11T21:11:09.705Z,6.43
2023-02-11T21:15:14.406Z,6.48
2023-02-11T21:19:18.273Z,6.49
2023-02-11T21:23:22.219Z,6.53
2023-02-11T21:27:31.121Z,6.54
2023-02-11T21:31:37.081Z,6.59
2023-02-11T21:35:40.093Z,6.62
2023-02-11T21:39:44.143Z,6.63
2023-02-11T21:43:47.461Z,6.61
2023-02-11T21:47:53.085Z,6.58
2023-02-11T21:51:56.811Z,6.52
2023-02-11T21:56:07.921Z,6.50
2023-02-11T22:00:13.298Z,6.47
2023-02-11T22:04:18.485Z,6.48
2023-02-11T22:08:22.107Z,6.48
2023-02-11T22:12:26.313Z,6.50
2023-02-11T22:16:30.516Z,6.52
2023-02-11T22:20:35.375Z,6.55
2023-02-11T22:24:38.661Z,6.57
2023-02-11T22:28:43.047Z,6.58
2023-02-11T22:32:47.476Z,6.59
2023-02-11T22:36:52.654Z,6.57
2023-02-11T22:40:55.917Z,6.55
2023-02-11T22:44:59.295Z,6.53
2023-02-11T22:49:02.587Z,6.48
2023-02-11T22:53:07.116Z,6.44
2023-02-11T22:57:10.153Z,6.40
2023-02-11T23:01:14.323Z,6.36
2023-02-11T23:05:17.906Z,6.36
2023-02-11T23:09:23.013Z,6.40
2023-02-11T23:13:26.300Z,6.44
2023-02-11T23:17:30.536Z,6.45
2023-02-11T23:21:36.700Z,6.51
2023-02-11T23:25:45.018Z,6.57
2023-02-11T23:29:48.532Z,6.65
2023-02-11T23:33:55.207Z,6.74
2023-02-11T23:37:58.338Z,6.82
2023-02-11T23:42:02.891Z,6.91
2023-02-11T23:46:07.251Z,6.98
2023-02-11T23:50:14.189Z,7.07
2023-02-11T23:54:17.471Z,7.10
2023-02-11T23:58:22.439Z,7.15
